Wetterdaten: Woche 26.11.18 - 02.12.18 (KW48)
Datum Zeit Temp. A. Feuchte A. Luftdruck Regen Wind Richtung Taupunkt Windchill Windben
26.11.2018 00:00 5,6 C 82 % 1004,8 hPa 1,3 l/m 0,3 km/h N 2,8 C 5,6 C 3,2 km/h
26.11.2018 01:00 5,7 C 82 % 1004,2 hPa 2,1 l/m 1,6 km/h N 2,8 C 5,7 C 5,2 km/h
26.11.2018 02:00 5,8 C 82 % 1003,7 hPa 1,0 l/m 1,4 km/h N 2,9 C 5,8 C 5,6 km/h
26.11.2018 03:00 5,8 C 82 % 1003,1 hPa 2,1 l/m 2,3 km/h N 3,0 C 5,8 C 7,2 km/h
26.11.2018 04:00 5,8 C 82 % 1002,6 hPa 1,8 l/m 2,0 km/h N 2,9 C 5,8 C 6,4 km/h
26.11.2018 05:00 5,8 C 82 % 1002,3 hPa 1,6 l/m 2,5 km/h N 3,0 C 5,8 C 8,0 km/h
26.11.2018 06:00 5,9 C 82 % 1002,1 hPa 2,6 l/m 2,9 km/h N 3,0 C 5,9 C 8,4 km/h
26.11.2018 07:00 5,8 C 82 % 1001,9 hPa 2,6 l/m 3,8 km/h N 2,9 C 5,8 C 13,3 km/h
26.11.2018 08:00 5,7 C 82 % 1002,1 hPa 2,9 l/m 3,9 km/h N 2,9 C 5,7 C 10,1 km/h
26.11.2018 09:00 5,7 C 82 % 1002,3 hPa 2,1 l/m 3,4 km/h N 2,9 C 5,7 C 11,3 km/h
26.11.2018 10:00 5,6 C 82 % 1002,6 hPa 2,6 l/m 4,0 km/h N 2,8 C 5,6 C 11,3 km/h
26.11.2018 11:00 5,3 C 82 % 1002,6 hPa 2,3 l/m 4,3 km/h N 2,5 C 5,3 C 10,9 km/h
26.11.2018 12:00 5,2 C 82 % 1002,7 hPa 1,8 l/m 3,7 km/h N 2,4 C 5,2 C 11,3 km/h
26.11.2018 13:00 5,0 C 82 % 1002,7 hPa 1,6 l/m 4,5 km/h N 2,2 C 5,0 C 13,3 km/h
26.11.2018 14:00 4,8 C 82 % 1003,0 hPa 1,0 l/m 5,5 km/h N 1,9 C 4,8 C 16,9 km/h
26.11.2018 15:00 4,6 C 82 % 1003,5 hPa 1,3 l/m 4,0 km/h N 1,8 C 4,6 C 12,5 km/h
26.11.2018 16:00 4,3 C 82 % 1003,9 hPa 1,0 l/m 5,6 km/h N 1,5 C 4,3 C 17,7 km/h
26.11.2018 17:00 3,7 C 82 % 1004,4 hPa 0,8 l/m 7,2 km/h N 0,9 C 2,8 C 19,3 km/h
26.11.2018 18:00 3,0 C 82 % 1004,9 hPa 0,3 l/m 7,6 km/h N 0,3 C 1,9 C 20,1 km/h
26.11.2018 19:00 2,9 C 82 % 1005,4 hPa 0,3 l/m 7,7 km/h N 0,2 C 1,7 C 19,7 km/h
26.11.2018 20:00 2,9 C 82 % 1005,9 hPa 1,0 l/m 7,5 km/h N 0,1 C 1,8 C 20,1 km/h
26.11.2018 21:00 2,8 C 82 % 1006,5 hPa 0,8 l/m 7,6 km/h N 0,0 C 1,7 C 20,9 km/h
26.11.2018 22:00 2,8 C 82 % 1007,2 hPa 0,8 l/m 7,6 km/h N 0,1 C 1,7 C 20,5 km/h
26.11.2018 23:00 2,7 C 82 % 1007,8 hPa 0,5 l/m 5,6 km/h N -0,0 C 2,7 C 16,9 km/h
27.11.2018 00:00 2,6 C 82 % 1008,3 hPa 0,3 l/m 5,1 km/h N -0,1 C 2,6 C 16,9 km/h
27.11.2018 01:00 2,7 C 82 % 1008,6 hPa 0,5 l/m 4,0 km/h N -0,1 C 2,7 C 14,9 km/h
27.11.2018 02:00 2,5 C 82 % 1009,1 hPa 0,3 l/m 5,1 km/h N -0,3 C 2,5 C 15,7 km/h
27.11.2018 03:00 2,3 C 82 % 1009,4 hPa 0,0 l/m 4,9 km/h N -0,5 C 2,3 C 16,9 km/h
27.11.2018 04:00 2,0 C 82 % 1010,0 hPa 0,0 l/m 4,9 km/h N -0,7 C 2,0 C 17,3 km/h
27.11.2018 05:00 1,6 C 82 % 1010,6 hPa 0,3 l/m 4,7 km/h N -1,1 C 1,6 C 16,1 km/h
27.11.2018 06:00 1,4 C 82 % 1011,1 hPa 0,3 l/m 3,7 km/h N -1,3 C 1,4 C 14,5 km/h
27.11.2018 07:00 1,4 C 82 % 1012,0 hPa 0,0 l/m 3,0 km/h N -1,4 C 1,4 C 13,7 km/h
27.11.2018 08:00 0,9 C 82 % 1012,9 hPa 0,5 l/m 1,6 km/h N -1,8 C 0,9 C 11,3 km/h
27.11.2018 09:00 0,6 C 82 % 1013,8 hPa 0,0 l/m 1,1 km/h N -2,1 C 0,6 C 7,2 km/h
27.11.2018 10:00 0,6 C 82 % 1014,6 hPa 0,5 l/m 0,9 km/h N -2,1 C 0,6 C 8,4 km/h
27.11.2018 11:00 0,3 C 82 % 1015,0 hPa 0,3 l/m 3,1 km/h N -2,4 C 0,3 C 16,1 km/h
27.11.2018 12:00 0,5 C 82 % 1015,2 hPa 0,3 l/m 2,7 km/h N -2,2 C 0,5 C 16,9 km/h
27.11.2018 13:00 0,8 C 82 % 1015,6 hPa 0,5 l/m 4,0 km/h N -2,0 C 0,8 C 16,9 km/h
27.11.2018 14:00 0,9 C 83 % 1016,2 hPa 0,0 l/m 1,2 km/h N -1,7 C 0,9 C 5,7 km/h
27.11.2018 15:00 0,9 C 82 % 1017,1 hPa 0,0 l/m 0,0 km/h N -1,9 C 0,9 C 0,0 km/h
27.11.2018 16:00 1,0 C 79 % 1017,9 hPa 0,0 l/m 1,6 km/h N -2,2 C 1,0 C 5,2 km/h
27.11.2018 17:00 1,1 C 78 % 1019,1 hPa 0,0 l/m 7,6 km/h N -2,4 C -0,3 C 24,1 km/h
27.11.2018 18:00 0,8 C 78 % 1019,9 hPa 0,0 l/m 7,0 km/h N -2,6 C 0,1 C 20,9 km/h
27.11.2018 19:00 0,4 C 78 % 1020,5 hPa 0,0 l/m 6,3 km/h N -3,0 C 0,2 C 21,7 km/h
27.11.2018 20:00 0,2 C 78 % 1021,1 hPa 0,0 l/m 6,6 km/h N -3,2 C -0,4 C 21,7 km/h
27.11.2018 21:00 -0,1 C 77 % 1021,8 hPa 0,0 l/m 6,1 km/h N -3,7 C -0,4 C 21,3 km/h
27.11.2018 22:00 -0,5 C 76 % 1022,4 hPa 0,0 l/m 3,8 km/h N -4,2 C -0,5 C 19,7 km/h
27.11.2018 23:00 -0,8 C 77 % 1023,0 hPa 0,0 l/m 2,9 km/h N -4,3 C -0,8 C 16,1 km/h
28.11.2018 00:00 -1,1 C 79 % 1023,1 hPa 0,0 l/m 4,0 km/h N -4,3 C -1,1 C 15,7 km/h
28.11.2018 01:00 -1,1 C 79 % 1023,3 hPa 0,0 l/m 7,3 km/h N -4,3 C -2,1 C 19,7 km/h
28.11.2018 02:00 -1,1 C 78 % 1023,6 hPa 0,0 l/m 6,6 km/h N -4,4 C -1,6 C 21,7 km/h
28.11.2018 03:00 -0,9 C 77 % 1023,9 hPa 0,0 l/m 7,5 km/h N -4,4 C -2,0 C 24,1 km/h
28.11.2018 04:00 -0,7 C 77 % 1024,6 hPa 0,0 l/m 6,5 km/h N -4,2 C -1,0 C 20,9 km/h
28.11.2018 05:00 -0,7 C 76 % 1025,0 hPa 0,0 l/m 7,5 km/h N -4,3 C -1,8 C 22,1 km/h
28.11.2018 06:00 -0,9 C 76 % 1025,6 hPa 0,0 l/m 6,2 km/h N -4,6 C -1,1 C 18,1 km/h
28.11.2018 07:00 -0,8 C 75 % 1026,1 hPa 0,0 l/m 7,7 km/h N -4,6 C -2,1 C 21,3 km/h
28.11.2018 08:00 -0,4 C 75 % 1026,8 hPa 0,0 l/m 10,1 km/h N -4,4 C -3,9 C 24,5 km/h
28.11.2018 09:00 -0,0 C 73 % 1027,3 hPa 0,0 l/m 7,0 km/h N -4,3 C -0,7 C 22,5 km/h
28.11.2018 10:00 0,7 C 72 % 1027,6 hPa 0,0 l/m 6,7 km/h N -3,9 C 0,4 C 24,5 km/h
28.11.2018 11:00 1,3 C 71 % 1027,5 hPa 0,0 l/m 7,6 km/h N -3,4 C 0,1 C 20,9 km/h
28.11.2018 12:00 2,2 C 69 % 1027,4 hPa 0,0 l/m 5,6 km/h N -2,9 C 2,2 C 19,3 km/h
28.11.2018 13:00 2,9 C 66 % 1027,5 hPa 0,0 l/m 4,7 km/h N -2,9 C 2,9 C 18,5 km/h
28.11.2018 14:00 3,2 C 62 % 1027,6 hPa 0,3 l/m 4,8 km/h N -3,5 C 3,2 C 18,5 km/h
28.11.2018 15:00 2,6 C 63 % 1027,9 hPa 0,0 l/m 2,8 km/h N -3,7 C 2,6 C 12,5 km/h
28.11.2018 16:00 1,5 C 67 % 1028,2 hPa 0,0 l/m 0,2 km/h N -4,0 C 1,5 C 4,8 km/h
28.11.2018 17:00 0,7 C 71 % 1028,7 hPa 0,0 l/m 0,3 km/h N -4,0 C 0,7 C 5,2 km/h
28.11.2018 18:00 0,4 C 73 % 1029,3 hPa 0,0 l/m 0,4 km/h N -4,0 C 0,4 C 4,0 km/h
28.11.2018 19:00 -0,4 C 76 % 1029,8 hPa 0,0 l/m 0,1 km/h N -4,1 C -0,4 C 1,6 km/h
28.11.2018 20:00 -1,2 C 77 % 1030,1 hPa 0,0 l/m 0,0 km/h N -4,8 C -1,2 C 0,4 km/h
28.11.2018 21:00 -2,4 C 78 % 1030,5 hPa 0,0 l/m 0,0 km/h N -5,7 C -2,4 C 0,0 km/h
28.11.2018 22:00 -3,5 C 80 % 1030,6 hPa 0,0 l/m 0,0 km/h N -6,4 C -3,5 C 0,0 km/h
28.11.2018 23:00 -3,8 C 82 % 1030,6 hPa 0,0 l/m 0,0 km/h N -6,4 C -3,8 C 0,0 km/h
29.11.2018 00:00 -4,3 C 82 % 1030,8 hPa 0,0 l/m 0,0 km/h N -6,9 C -4,3 C 0,0 km/h
29.11.2018 01:00 -4,8 C 83 % 1030,9 hPa 0,0 l/m 0,0 km/h N -7,3 C -4,8 C 0,0 km/h
29.11.2018 02:00 -5,5 C 83 % 1031,3 hPa 0,0 l/m 0,0 km/h N -7,9 C -5,5 C 0,0 km/h
29.11.2018 03:00 -6,1 C 83 % 1031,3 hPa 0,0 l/m 0,0 km/h N -8,5 C -6,1 C 0,0 km/h
29.11.2018 04:00 -6,7 C 83 % 1031,3 hPa 0,0 l/m 0,0 km/h N -9,1 C -6,7 C 0,0 km/h
29.11.2018 05:00 -7,3 C 83 % 1031,4 hPa 0,0 l/m 0,0 km/h N -9,7 C -7,3 C 0,0 km/h
29.11.2018 06:00 -7,7 C 83 % 1031,8 hPa 0,0 l/m 0,0 km/h N -10,1 C -7,7 C 0,0 km/h
29.11.2018 07:00 -8,0 C 83 % 1032,0 hPa 0,0 l/m 0,0 km/h N -10,3 C -8,0 C 0,0 km/h
29.11.2018 08:00 -6,9 C 82 % 1031,9 hPa 0,0 l/m 0,0 km/h N -9,4 C -6,9 C 0,0 km/h
29.11.2018 09:00 -4,3 C 82 % 1032,0 hPa 0,0 l/m 0,0 km/h N -6,9 C -4,3 C 2,4 km/h
29.11.2018 10:00 -2,8 C 82 % 1031,8 hPa 0,0 l/m 0,8 km/h N -5,5 C -2,8 C 5,2 km/h
29.11.2018 11:00 -1,3 C 82 % 1031,3 hPa 0,0 l/m 2,4 km/h N -4,0 C -1,3 C 8,0 km/h
29.11.2018 12:00 0,0 C 79 % 1030,6 hPa 0,0 l/m 3,1 km/h N -3,3 C 0,0 C 8,9 km/h
29.11.2018 13:00 0,8 C 71 % 1029,8 hPa 0,0 l/m 2,9 km/h N -3,9 C 0,8 C 10,4 km/h
29.11.2018 14:00 1,0 C 68 % 1029,4 hPa 0,0 l/m 2,1 km/h N -4,2 C 1,0 C 8,0 km/h
29.11.2018 15:00 0,3 C 69 % 1029,3 hPa 0,0 l/m 1,4 km/h N -4,8 C 0,3 C 7,2 km/h
29.11.2018 16:00 -0,8 C 72 % 1029,6 hPa 0,0 l/m 0,2 km/h N -5,1 C -0,8 C 4,8 km/h
29.11.2018 17:00 -1,4 C 76 % 1029,5 hPa 0,0 l/m 0,8 km/h N -5,1 C -1,4 C 6,4 km/h
29.11.2018 18:00 -1,7 C 76 % 1029,2 hPa 0,0 l/m 0,7 km/h N -5,3 C -1,7 C 6,4 km/h
29.11.2018 19:00 -1,9 C 77 % 1028,9 hPa 0,0 l/m 1,2 km/h N -5,4 C -1,9 C 7,6 km/h
29.11.2018 20:00 -2,4 C 79 % 1028,4 hPa 0,0 l/m 2,2 km/h N -5,5 C -2,4 C 10,1 km/h
29.11.2018 21:00 -2,6 C 81 % 1028,2 hPa 0,0 l/m 2,0 km/h N -5,4 C -2,6 C 10,4 km/h
29.11.2018 22:00 -2,8 C 81 % 1027,6 hPa 0,0 l/m 2,2 km/h N -5,6 C -2,8 C 12,9 km/h
29.11.2018 23:00 -2,8 C 82 % 1027,1 hPa 0,0 l/m 2,4 km/h N -5,5 C -2,8 C 10,5 km/h
30.11.2018 00:00 -2,9 C 82 % 1026,1 hPa 0,0 l/m 1,0 km/h N -5,6 C -2,9 C 8,1 km/h
30.11.2018 01:00 -2,8 C 81 % 1025,4 hPa 0,0 l/m 1,3 km/h N -5,6 C -2,8 C 8,0 km/h
30.11.2018 02:00 -2,6 C 80 % 1025,1 hPa 0,0 l/m 1,2 km/h N -5,5 C -2,6 C 11,3 km/h
30.11.2018 03:00 -2,6 C 81 % 1024,5 hPa 0,0 l/m 1,6 km/h N -5,4 C -2,6 C 8,4 km/h
30.11.2018 04:00 -2,8 C 81 % 1024,2 hPa 0,0 l/m 2,1 km/h N -5,6 C -2,8 C 10,1 km/h
30.11.2018 05:00 -2,8 C 81 % 1023,8 hPa 0,0 l/m 1,9 km/h N -5,7 C -2,8 C 9,6 km/h
30.11.2018 06:00 -3,0 C 81 % 1023,3 hPa 0,0 l/m 3,6 km/h N -5,8 C -3,0 C 10,5 km/h
30.11.2018 07:00 -3,3 C 82 % 1023,7 hPa 0,0 l/m 3,0 km/h N -5,9 C -3,3 C 13,7 km/h
30.11.2018 08:00 -3,0 C 83 % 1023,8 hPa 0,0 l/m 3,8 km/h N -5,5 C -3,0 C 11,7 km/h
30.11.2018 09:00 -2,2 C 81 % 1023,5 hPa 0,0 l/m 4,4 km/h N -4,9 C -2,2 C 13,3 km/h
30.11.2018 10:00 -1,5 C 74 % 1023,2 hPa 0,0 l/m 5,2 km/h N -5,6 C -1,5 C 14,1 km/h
30.11.2018 11:00 -0,4 C 63 % 1022,6 hPa 0,0 l/m 5,0 km/h N -6,5 C -0,4 C 14,1 km/h
30.11.2018 12:00 0,2 C 57 % 1021,9 hPa 0,0 l/m 3,7 km/h N -7,4 C 0,2 C 11,7 km/h
30.11.2018 13:00 0,2 C 53 % 1021,3 hPa 0,0 l/m 3,8 km/h N -8,3 C 0,2 C 10,5 km/h
30.11.2018 14:00 -0,2 C 54 % 1021,1 hPa 0,0 l/m 2,9 km/h N -8,4 C -0,2 C 9,3 km/h
30.11.2018 15:00 -1,0 C 59 % 1021,1 hPa 0,0 l/m 1,9 km/h N -8,1 C -1,0 C 8,4 km/h
30.11.2018 16:00 -1,6 C 62 % 1021,0 hPa 0,0 l/m 1,1 km/h N -8,0 C -1,6 C 6,8 km/h
30.11.2018 17:00 -2,0 C 64 % 1020,8 hPa 0,0 l/m 2,3 km/h N -7,9 C -2,0 C 8,4 km/h
30.11.2018 18:00 -2,2 C 66 % 1020,6 hPa 0,0 l/m 1,5 km/h N -7,6 C -2,2 C 7,2 km/h
30.11.2018 19:00 -2,1 C 68 % 1020,5 hPa 0,0 l/m 1,0 km/h N -7,3 C -2,1 C 6,8 km/h
30.11.2018 20:00 -2,0 C 67 % 1020,4 hPa 0,0 l/m 0,6 km/h N -7,2 C -2,0 C 6,0 km/h
30.11.2018 21:00 -1,8 C 67 % 1020,2 hPa 0,0 l/m 1,6 km/h N -7,0 C -1,8 C 7,6 km/h
30.11.2018 22:00 -2,0 C 71 % 1020,1 hPa 0,0 l/m 0,7 km/h N -6,5 C -2,0 C 4,8 km/h
30.11.2018 23:00 -2,3 C 77 % 1020,0 hPa 0,0 l/m 0,1 km/h N -5,8 C -2,3 C 3,2 km/h
01.12.2018 00:00 -2,7 C 81 % 1019,8 hPa 0,0 l/m 0,0 km/h N -5,6 C -2,7 C 0,0 km/h
01.12.2018 01:00 -2,9 C 82 % 1019,8 hPa 0,0 l/m 0,0 km/h N -5,5 C -2,9 C 0,4 km/h
01.12.2018 02:00 -3,1 C 82 % 1019,7 hPa 0,0 l/m 0,0 km/h N -5,7 C -3,1 C 0,0 km/h
01.12.2018 03:00 -3,1 C 82 % 1019,3 hPa 0,0 l/m 0,0 km/h N -5,7 C -3,1 C 0,0 km/h
01.12.2018 04:00 -3,0 C 82 % 1019,3 hPa 0,0 l/m 0,0 km/h N -5,7 C -3,0 C 0,0 km/h
01.12.2018 05:00 -2,9 C 82 % 1019,5 hPa 0,0 l/m 0,0 km/h N -5,5 C -2,9 C 0,0 km/h
01.12.2018 06:00 -3,0 C 82 % 1019,8 hPa 0,0 l/m 0,0 km/h N -5,6 C -3,0 C 0,0 km/h
01.12.2018 07:00 -3,0 C 82 % 1020,2 hPa 0,0 l/m 0,0 km/h N -5,6 C -3,0 C 0,0 km/h
01.12.2018 08:00 -2,9 C 82 % 1020,6 hPa 0,0 l/m 0,0 km/h N -5,5 C -2,9 C 0,0 km/h
01.12.2018 09:00 -2,4 C 82 % 1021,0 hPa 0,0 l/m 0,0 km/h N -5,0 C -2,4 C 0,0 km/h
01.12.2018 10:00 -1,8 C 82 % 1021,2 hPa 0,0 l/m 0,0 km/h N -4,4 C -1,8 C 0,0 km/h
01.12.2018 11:00 -1,4 C 82 % 1021,0 hPa 0,0 l/m 0,0 km/h N -4,1 C -1,4 C 0,0 km/h
01.12.2018 12:00 -1,1 C 82 % 1021,0 hPa 0,0 l/m 0,0 km/h N -3,8 C -1,1 C 0,0 km/h
01.12.2018 13:00 -1,1 C 82 % 1021,1 hPa 0,0 l/m 0,0 km/h N -3,8 C -1,1 C 0,4 km/h
01.12.2018 14:00 -1,0 C 82 % 1021,1 hPa 0,0 l/m 0,0 km/h N -3,7 C -1,0 C 0,4 km/h
01.12.2018 15:00 -0,8 C 82 % 1021,2 hPa 0,0 l/m 0,0 km/h N -3,5 C -0,8 C 0,0 km/h
01.12.2018 16:00 -0,9 C 82 % 1021,7 hPa 0,0 l/m 0,0 km/h N -3,5 C -0,9 C 0,0 km/h
01.12.2018 17:00 -0,9 C 82 % 1022,1 hPa 0,0 l/m 0,0 km/h N -3,6 C -0,9 C 0,4 km/h
01.12.2018 18:00 -0,9 C 82 % 1021,9 hPa 0,0 l/m 0,0 km/h N -3,6 C -0,9 C 1,6 km/h
01.12.2018 19:00 -1,2 C 82 % 1021,6 hPa 0,0 l/m 0,0 km/h N -3,8 C -1,2 C 0,0 km/h
01.12.2018 20:00 -1,9 C 82 % 1021,7 hPa 0,0 l/m 0,0 km/h N -4,6 C -1,9 C 0,0 km/h
01.12.2018 21:00 -3,0 C 83 % 1021,4 hPa 0,0 l/m 0,0 km/h N -5,6 C -3,0 C 0,0 km/h
01.12.2018 22:00 -4,3 C 83 % 1021,3 hPa 0,0 l/m 0,0 km/h N -6,7 C -4,3 C 0,4 km/h
01.12.2018 23:00 -5,2 C 83 % 1020,9 hPa 0,0 l/m 0,0 km/h N -7,6 C -5,2 C 0,0 km/h
02.12.2018 00:00 -5,6 C 83 % 1020,3 hPa 0,0 l/m 0,0 km/h N -8,0 C -5,6 C 0,0 km/h
02.12.2018 01:00 -4,8 C 82 % 1019,8 hPa 0,0 l/m 0,0 km/h N -7,4 C -4,8 C 0,0 km/h
02.12.2018 02:00 -4,4 C 82 % 1019,5 hPa 0,0 l/m 0,0 km/h N -7,0 C -4,4 C 0,0 km/h
02.12.2018 03:00 -4,1 C 82 % 1019,0 hPa 0,0 l/m 0,0 km/h N -6,7 C -4,1 C 0,0 km/h
02.12.2018 04:00 -3,6 C 82 % 1018,6 hPa 0,0 l/m 0,0 km/h N -6,2 C -3,6 C 0,4 km/h
02.12.2018 05:00 -3,2 C 82 % 1018,1 hPa 0,0 l/m 0,0 km/h N -5,8 C -3,2 C 0,4 km/h
02.12.2018 06:00 -2,9 C 82 % 1017,6 hPa 0,0 l/m 0,0 km/h N -5,6 C -2,9 C 0,8 km/h
02.12.2018 07:00 -2,9 C 82 % 1017,2 hPa 0,0 l/m 0,0 km/h N -5,5 C -2,9 C 1,2 km/h
02.12.2018 08:00 -2,8 C 82 % 1017,0 hPa 0,0 l/m 0,0 km/h N -5,4 C -2,8 C 1,2 km/h
02.12.2018 09:00 -2,3 C 82 % 1016,9 hPa 0,0 l/m 0,1 km/h N -5,0 C -2,3 C 2,0 km/h
02.12.2018 10:00 -1,8 C 82 % 1016,7 hPa 0,0 l/m 0,2 km/h N -4,5 C -1,8 C 3,2 km/h
02.12.2018 11:00 -1,1 C 82 % 1016,0 hPa 0,0 l/m 0,0 km/h N -3,8 C -1,1 C 0,8 km/h
02.12.2018 12:00 -0,7 C 82 % 1015,1 hPa 0,0 l/m 0,1 km/h N -3,4 C -0,7 C 1,6 km/h
02.12.2018 13:00 -0,5 C 82 % 1014,3 hPa 0,3 l/m 0,0 km/h N -3,2 C -0,5 C 1,2 km/h
02.12.2018 14:00 -0,1 C 82 % 1013,4 hPa 0,0 l/m 0,3 km/h N -2,8 C -0,1 C 3,6 km/h
02.12.2018 15:00 0,3 C 82 % 1013,5 hPa 0,0 l/m 0,1 km/h N -2,4 C 0,3 C 2,8 km/h
02.12.2018 16:00 0,5 C 82 % 1012,5 hPa 0,0 l/m 0,0 km/h N -2,2 C 0,5 C 1,6 km/h
02.12.2018 17:00 0,6 C 82 % 1012,9 hPa 0,0 l/m 0,0 km/h N -2,1 C 0,6 C 0,4 km/h
02.12.2018 18:00 0,6 C 82 % 1013,0 hPa 0,0 l/m 0,1 km/h N -2,2 C 0,6 C 0,8 km/h
02.12.2018 19:00 0,5 C 82 % 1012,6 hPa 0,0 l/m 0,0 km/h N -2,2 C 0,5 C 0,4 km/h
02.12.2018 20:00 0,7 C 82 % 1012,4 hPa 1,0 l/m 0,1 km/h N -2,1 C 0,7 C 1,2 km/h
02.12.2018 21:00 0,7 C 82 % 1012,3 hPa 0,8 l/m 0,1 km/h N -2,0 C 0,7 C 3,2 km/h
02.12.2018 22:00 0,7 C 82 % 1012,0 hPa 0,3 l/m 0,0 km/h N -2,0 C 0,7 C 1,2 km/h
02.12.2018 23:00 0,8 C 82 % 1011,6 hPa 0,5 l/m 0,1 km/h N -2,0 C 0,8 C 2,4 km/h
Min-Datum _ 29.11.18 30.11.18 26.11.18 - 26.11.18 - 29.11.18 29.11.18 27.11.18
_ Min-Zeit 07:45 13:00 07:00 - 00:00 - 07:15 07:15 14:30
Minimum _ -8,1 C 52 % 1001,9 hPa - 0,0 km/h - -10,4 C -8,0 C 0,0 km/h
Max-Datum _ 26.11.18 27.11.18 29.11.18 26.11.18 28.11.18 - 26.11.18 26.11.18 28.11.18
_ Max-Zeit 05:45 14:00 07:15 08:15 08:45 - 06:00 06:00 08:45
Maximum _ 5,9 C 83 % 1032,2 hPa 2,9 l/m 11,8 km/h
N
- 3,1 C 5,9 C 29,0 km/h
N
Durchschnitt _ -0,5 C 79 % 1019,3 hPa #42,9 l/m 2,3 km/h N -3,8 C -0,6 C 8,3 km/h